Tambacounda, Senegal
Current Conditions -  °F | °C
As of 10:00 AM on Monday 26 Jan 2015 (Local Time) from GOTT Reporting Station
Clear Clear  
Wind Chill: 81°   Ceiling: Unl
Heat Index: 81°   Visibility: 5mi
Dew Point: 28°   Wind: 14mph
Humidity: 15%   Direction: 60°ENE
Pressure: 29.94"   Gusts: NA
Location:  13.77°N, 13.67°W
Report Text: GOTT 261000Z 06012KT 8000 NSC 27/M02 Q1014
Loading
Personal Weather Stations






























Interactive Weather Map New forecast layout! Learn more

10-Day Weather Forecast

Advertisements
Track Severe Weather on mobile